createdAt,value
2023-05-07T00:00:24.030Z,86105.00
2023-05-07T00:02:51.604Z,86101.56
2023-05-07T00:05:19.140Z,86053.50
2023-05-07T00:07:46.330Z,86067.91
2023-05-07T00:10:14.037Z,86121.50
2023-05-07T00:12:41.786Z,86076.22
2023-05-07T00:15:09.591Z,86099.50
2023-05-07T00:17:37.455Z,86122.09
2023-05-07T00:20:06.153Z,86062.28
2023-05-07T00:22:33.563Z,86125.53
2023-05-07T00:25:01.289Z,86114.63
2023-05-07T00:27:28.739Z,86125.59
2023-05-07T00:29:55.657Z,86083.09
2023-05-07T00:32:22.578Z,86081.69
2023-05-07T00:34:49.600Z,86112.59
2023-05-07T00:37:16.688Z,86099.53
2023-05-07T00:39:43.686Z,86102.28
2023-05-07T00:42:11.010Z,85979.28
2023-05-07T00:44:38.101Z,86058.28
2023-05-07T00:47:06.264Z,86072.06
2023-05-07T00:49:42.698Z,86078.94
2023-05-07T00:52:12.881Z,86122.88
2023-05-07T00:54:41.467Z,86121.44
2023-05-07T00:57:12.232Z,86124.97
2023-05-07T00:59:40.707Z,86051.44
2023-05-07T01:02:08.715Z,86079.03
2023-05-07T01:04:36.367Z,86049.97
2023-05-07T01:07:04.652Z,86105.03
2023-05-07T01:09:32.107Z,86136.41
2023-05-07T01:12:00.042Z,86078.03
2023-05-07T01:14:27.840Z,86087.06
2023-05-07T01:16:55.122Z,86126.88
2023-05-07T01:19:24.618Z,86126.91
2023-05-07T01:21:52.668Z,86118.00
2023-05-07T01:24:21.988Z,86132.53
2023-05-07T01:26:48.961Z,86096.13
2023-05-07T01:29:18.817Z,86098.81
2023-05-07T01:31:49.085Z,86106.28
2023-05-07T01:34:18.602Z,86085.69
2023-05-07T01:36:46.192Z,86128.34
2023-05-07T01:39:13.961Z,86083.00
2023-05-07T01:41:41.084Z,86121.38
2023-05-07T01:44:09.549Z,86039.00
2023-05-07T01:46:37.280Z,86123.53
2023-05-07T01:49:05.145Z,85947.69
2023-05-07T01:51:32.996Z,86118.69
2023-05-07T01:54:00.014Z,86039.69
2023-05-07T01:56:27.515Z,86054.75
2023-05-07T01:58:55.715Z,86087.88
2023-05-07T02:01:22.751Z,86096.81
2023-05-07T02:03:51.025Z,86118.78
2023-05-07T02:06:23.602Z,86089.94
2023-05-07T02:08:53.026Z,86059.00
2023-05-07T02:11:20.103Z,86081.63
2023-05-07T02:13:47.435Z,86092.56
2023-05-07T02:16:15.583Z,86098.00
2023-05-07T02:18:42.662Z,86118.75
2023-05-07T02:21:09.733Z,86065.13
2023-05-07T02:23:36.957Z,86052.09
2023-05-07T02:26:07.043Z,86091.25
2023-05-07T02:28:36.538Z,86110.56
2023-05-07T02:31:05.741Z,86100.97
2023-05-07T02:33:33.536Z,86060.44
2023-05-07T02:36:11.161Z,86080.34
2023-05-07T02:38:55.874Z,85954.00
2023-05-07T02:41:23.041Z,86020.56
2023-05-07T02:43:50.334Z,86041.84
2023-05-07T02:46:18.148Z,86059.72
2023-05-07T02:48:49.115Z,86093.47
2023-05-07T02:51:16.370Z,86098.38
2023-05-07T02:53:44.475Z,86032.53
2023-05-07T02:56:11.642Z,86038.00
2023-05-07T02:58:40.555Z,86101.94
2023-05-07T03:01:08.639Z,86099.19
2023-05-07T03:03:43.031Z,86049.88
2023-05-07T03:06:10.190Z,86099.28
2023-05-07T03:08:37.903Z,86084.06
2023-05-07T03:11:05.151Z,86057.31
2023-05-07T03:13:32.168Z,86069.75
2023-05-07T03:15:59.283Z,86085.53
2023-05-07T03:18:26.391Z,86091.00
2023-05-07T03:20:54.142Z,86106.88
2023-05-07T03:23:22.531Z,86097.31
2023-05-07T03:25:51.539Z,85927.06
2023-05-07T03:28:18.661Z,86027.50
2023-05-07T03:30:54.767Z,85971.91
2023-05-07T03:33:22.297Z,86107.91
2023-05-07T03:35:49.987Z,86096.13
2023-05-07T03:38:21.695Z,85945.00
2023-05-07T03:40:48.857Z,86087.13
2023-05-07T03:43:16.760Z,86042.47
2023-05-07T03:45:48.559Z,86089.94
2023-05-07T03:48:20.715Z,86107.78
2023-05-07T03:50:49.000Z,86037.69
2023-05-07T03:53:17.991Z,86114.13
2023-05-07T03:55:45.257Z,86020.66
2023-05-07T03:58:12.581Z,86045.47
2023-05-07T04:00:41.136Z,86086.81
2023-05-07T04:03:25.839Z,86087.44
2023-05-07T04:05:53.658Z,86089.47
2023-05-07T04:08:21.730Z,86059.91
2023-05-07T04:10:57.429Z,86077.16
2023-05-07T04:13:26.741Z,86088.22
2023-05-07T04:15:55.765Z,86104.63
2023-05-07T04:18:23.059Z,86102.03
2023-05-07T04:20:51.165Z,86115.81
2023-05-07T04:23:18.185Z,86096.53
2023-05-07T04:25:46.396Z,86089.53
2023-05-07T04:28:28.480Z,86093.69
2023-05-07T04:30:55.507Z,86099.19
2023-05-07T04:33:23.238Z,86120.50
2023-05-07T04:35:51.284Z,86093.59
2023-05-07T04:38:19.488Z,86097.72
2023-05-07T04:40:49.158Z,86015.22
2023-05-07T04:43:20.912Z,86066.78
2023-05-07T04:45:53.911Z,86119.00
2023-05-07T04:48:23.766Z,86105.91
2023-05-07T04:50:52.620Z,86081.09
2023-05-07T04:53:21.433Z,86116.84
2023-05-07T04:55:49.688Z,86061.78
2023-05-07T04:58:17.672Z,86053.53
2023-05-07T05:00:48.079Z,86035.63
2023-05-07T05:03:15.169Z,86049.31
2023-05-07T05:05:42.661Z,86060.94
2023-05-07T05:08:09.898Z,86124.81
2023-05-07T05:10:39.423Z,86083.50
2023-05-07T05:13:07.558Z,86109.66
2023-05-07T05:15:35.218Z,86090.38
2023-05-07T05:18:03.110Z,86094.34
2023-05-07T05:20:31.373Z,86110.59
2023-05-07T05:22:58.990Z,86044.69
2023-05-07T05:25:26.280Z,86094.13
2023-05-07T05:27:53.553Z,86106.34
2023-05-07T05:30:21.395Z,86074.06
2023-05-07T05:32:50.107Z,86111.75
2023-05-07T05:35:17.228Z,86119.25
2023-05-07T05:37:44.872Z,86138.41
2023-05-07T05:40:13.214Z,86092.28
2023-05-07T05:42:40.681Z,86120.41
2023-05-07T05:45:09.458Z,86109.97
2023-05-07T05:47:36.554Z,86143.53
2023-05-07T05:50:03.632Z,86146.94
2023-05-07T05:52:30.672Z,86143.47
2023-05-07T05:54:58.084Z,86121.31
2023-05-07T05:57:27.932Z,86059.34
2023-05-07T05:59:56.181Z,86110.78
2023-05-07T06:02:24.773Z,86137.34
2023-05-07T06:04:51.997Z,86111.78
2023-05-07T06:07:21.087Z,86128.88
2023-05-07T06:09:48.283Z,86077.97
2023-05-07T06:12:15.654Z,86125.19
2023-05-07T06:14:44.775Z,86092.72
2023-05-07T06:17:12.512Z,86103.47
2023-05-07T06:19:39.605Z,86126.69
2023-05-07T06:22:07.539Z,86103.84
2023-05-07T06:24:35.642Z,86096.25
2023-05-07T06:27:06.523Z,86135.91
2023-05-07T06:29:34.666Z,86122.78
2023-05-07T06:32:21.314Z,86143.06
2023-05-07T06:34:48.318Z,86152.44
2023-05-07T06:37:16.373Z,86114.66
2023-05-07T06:39:54.342Z,86061.03
2023-05-07T06:42:21.476Z,86145.25
2023-05-07T06:44:49.917Z,86105.34
2023-05-07T06:47:18.659Z,86095.53
2023-05-07T06:49:50.519Z,86122.34
2023-05-07T06:52:19.621Z,86156.66
2023-05-07T06:54:48.717Z,86157.72
2023-05-07T06:57:17.886Z,86154.88
2023-05-07T06:59:45.020Z,86149.09
2023-05-07T07:02:12.600Z,86155.22
2023-05-07T07:04:40.037Z,86117.28
2023-05-07T07:07:10.854Z,86146.63
2023-05-07T07:09:38.582Z,86169.97
2023-05-07T07:12:07.473Z,86158.25
2023-05-07T07:14:36.957Z,86175.91
2023-05-07T07:17:06.309Z,86170.91
2023-05-07T07:19:34.088Z,86134.97
2023-05-07T07:22:03.138Z,86140.81
2023-05-07T07:24:30.145Z,86126.72
2023-05-07T07:27:00.525Z,86103.41
2023-05-07T07:29:28.246Z,86149.09
2023-05-07T07:31:56.020Z,86188.72
2023-05-07T07:34:23.510Z,86123.84
2023-05-07T07:36:51.355Z,86180.03
2023-05-07T07:39:22.859Z,86192.00
2023-05-07T07:41:53.000Z,86161.00
2023-05-07T07:44:21.531Z,86190.47
2023-05-07T07:46:53.886Z,86167.44
2023-05-07T07:49:22.915Z,86170.66
2023-05-07T07:51:50.081Z,86168.97
2023-05-07T07:54:17.645Z,86207.78
2023-05-07T07:56:45.275Z,86200.69
2023-05-07T07:59:23.069Z,86151.13
2023-05-07T08:01:55.518Z,86197.69
2023-05-07T08:04:24.676Z,86181.97
2023-05-07T08:06:52.399Z,86145.00
2023-05-07T08:09:19.746Z,86187.66
2023-05-07T08:11:47.944Z,86188.56
2023-05-07T08:14:16.856Z,86162.19
2023-05-07T08:16:46.594Z,86123.78
2023-05-07T08:19:13.896Z,86194.09
2023-05-07T08:21:41.798Z,86197.75
2023-05-07T08:24:11.035Z,86199.88
2023-05-07T08:26:40.302Z,86187.75
2023-05-07T08:29:09.090Z,86147.03
2023-05-07T08:31:36.216Z,86160.31
2023-05-07T08:34:05.020Z,86197.81
2023-05-07T08:36:32.195Z,86201.44
2023-05-07T08:39:00.140Z,86207.16
2023-05-07T08:41:27.129Z,86164.75
2023-05-07T08:43:58.946Z,86173.84
2023-05-07T08:46:27.077Z,86195.47
2023-05-07T08:48:56.635Z,86197.88
2023-05-07T08:51:23.679Z,86183.59
2023-05-07T08:53:51.337Z,86195.13
2023-05-07T08:56:26.235Z,86179.09
2023-05-07T08:58:59.796Z,86183.91
2023-05-07T09:01:28.778Z,86121.56
2023-05-07T09:03:56.897Z,86187.16
2023-05-07T09:06:24.535Z,86186.81
2023-05-07T09:08:53.137Z,86203.16
2023-05-07T09:11:22.820Z,86207.06
2023-05-07T09:13:55.654Z,86185.16
2023-05-07T09:16:23.922Z,86190.50
2023-05-07T09:18:55.785Z,86188.88
2023-05-07T09:21:24.243Z,86199.09
2023-05-07T09:23:56.137Z,86194.09
2023-05-07T09:26:29.433Z,86154.00
2023-05-07T09:28:56.753Z,86190.56
2023-05-07T09:31:24.834Z,86191.81
2023-05-07T09:34:19.939Z,86186.09
2023-05-07T09:36:48.405Z,86144.25
2023-05-07T09:39:15.783Z,86168.19
2023-05-07T09:41:47.309Z,86180.81
2023-05-07T09:44:20.528Z,86186.41
2023-05-07T09:46:56.628Z,86167.59
2023-05-07T09:49:31.452Z,86179.75
2023-05-07T09:52:10.112Z,86177.16
2023-05-07T09:54:44.250Z,86153.63
2023-05-07T09:57:13.071Z,86162.16
2023-05-07T09:59:45.130Z,86158.69
2023-05-07T10:02:16.983Z,86174.81
2023-05-07T10:04:50.459Z,86166.81
2023-05-07T10:07:22.724Z,86168.19
2023-05-07T10:09:53.680Z,86152.56
2023-05-07T10:12:37.854Z,86162.19
2023-05-07T10:15:10.076Z,86162.31
2023-05-07T10:17:39.689Z,86054.97
2023-05-07T10:20:08.800Z,86158.78
2023-05-07T10:22:44.138Z,86151.81
2023-05-07T10:25:16.005Z,86161.28
2023-05-07T10:27:44.706Z,86102.72
2023-05-07T10:31:02.363Z,86160.75
2023-05-07T10:33:38.775Z,86162.94
2023-05-07T10:36:09.016Z,86158.72
2023-05-07T10:38:36.769Z,86085.88
2023-05-07T10:41:06.756Z,86082.50
2023-05-07T10:43:45.412Z,86168.25
2023-05-07T10:46:36.645Z,86163.00
2023-05-07T10:49:21.700Z,86119.44
2023-05-07T10:52:19.540Z,86147.44
2023-05-07T10:55:19.981Z,86155.34
2023-05-07T10:58:33.108Z,86158.75
2023-05-07T11:01:55.552Z,86159.72
2023-05-07T11:05:06.812Z,86166.84
2023-05-07T11:07:35.206Z,86141.41
2023-05-07T11:10:13.522Z,86129.75
2023-05-07T11:13:00.961Z,86167.91
2023-05-07T11:15:49.738Z,86155.91
2023-05-07T11:18:50.219Z,86164.78
2023-05-07T11:21:38.663Z,86158.13
2023-05-07T11:24:24.523Z,86096.06
2023-05-07T11:27:14.625Z,86152.09
2023-05-07T11:29:48.360Z,86115.66
2023-05-07T11:32:16.028Z,86144.06
2023-05-07T11:34:53.791Z,86145.16
2023-05-07T11:37:21.740Z,86127.41
2023-05-07T11:40:12.126Z,86150.41
2023-05-07T11:42:41.381Z,86150.47
2023-05-07T11:45:09.793Z,86139.53
2023-05-07T11:47:37.107Z,86099.34
2023-05-07T11:50:09.110Z,86076.66
2023-05-07T11:52:36.885Z,86139.81
2023-05-07T11:55:07.548Z,86065.19
2023-05-07T11:57:35.828Z,86140.25
2023-05-07T12:00:05.163Z,86152.72
2023-05-07T12:02:40.038Z,86153.91
2023-05-07T12:05:07.424Z,86144.34
2023-05-07T12:07:37.757Z,86083.75
2023-05-07T12:10:08.294Z,86116.97
2023-05-07T12:12:43.304Z,86086.25
2023-05-07T12:15:11.611Z,86119.97
2023-05-07T12:17:39.205Z,86145.88
2023-05-07T12:20:07.239Z,86143.00
2023-05-07T12:22:34.398Z,86149.88
2023-05-07T12:25:02.047Z,86135.03
2023-05-07T12:27:29.293Z,86132.44
2023-05-07T12:29:58.939Z,86130.69
2023-05-07T12:32:26.016Z,86080.41
2023-05-07T12:34:53.488Z,86080.81
2023-05-07T12:37:28.591Z,86102.19
2023-05-07T12:40:10.833Z,86073.75
2023-05-07T12:42:39.252Z,86128.56
2023-05-07T12:45:14.498Z,86130.00
2023-05-07T12:47:49.500Z,86124.66
2023-05-07T12:50:17.409Z,86115.72
2023-05-07T12:52:46.144Z,86114.88
2023-05-07T12:55:16.162Z,86118.69
2023-05-07T12:57:46.611Z,86103.63
2023-05-07T13:00:14.383Z,86101.00
2023-05-07T13:02:45.666Z,86056.41
2023-05-07T13:05:13.572Z,86100.16
2023-05-07T13:07:41.908Z,86063.53
2023-05-07T13:10:09.524Z,86069.44
2023-05-07T13:12:37.186Z,86090.72
2023-05-07T13:15:04.459Z,86048.56
2023-05-07T13:17:32.422Z,86106.47
2023-05-07T13:19:59.945Z,86060.13
2023-05-07T13:22:26.980Z,86099.66
2023-05-07T13:24:53.893Z,86099.06
2023-05-07T13:27:21.536Z,86102.50
2023-05-07T13:29:48.501Z,86099.50
2023-05-07T13:32:15.747Z,86081.88
2023-05-07T13:34:42.818Z,86096.63
2023-05-07T13:37:11.232Z,86069.59
2023-05-07T13:39:38.523Z,86102.72
2023-05-07T13:42:05.555Z,86102.81
2023-05-07T13:44:32.625Z,86052.84
2023-05-07T13:46:59.678Z,86095.38
2023-05-07T13:49:27.036Z,86086.28
2023-05-07T13:51:54.207Z,86104.44
2023-05-07T13:54:21.206Z,86091.47
2023-05-07T13:56:48.666Z,86104.44
2023-05-07T13:59:15.639Z,86109.03
2023-05-07T14:01:45.027Z,86112.25
2023-05-07T14:04:12.279Z,86126.59
2023-05-07T14:06:40.262Z,86124.38
2023-05-07T14:09:07.305Z,86089.53
2023-05-07T14:11:36.114Z,86105.78
2023-05-07T14:14:03.495Z,86118.25
2023-05-07T14:16:30.606Z,86116.03
2023-05-07T14:18:58.651Z,86113.47
2023-05-07T14:21:25.949Z,86118.47
2023-05-07T14:23:52.927Z,86114.50
2023-05-07T14:26:20.417Z,86085.78
2023-05-07T14:28:50.005Z,86112.78
2023-05-07T14:31:17.241Z,86112.69
2023-05-07T14:33:44.211Z,86085.69
2023-05-07T14:36:11.331Z,86110.16
2023-05-07T14:38:38.339Z,86111.41
2023-05-07T14:41:05.481Z,86106.31
2023-05-07T14:43:32.646Z,86061.19
2023-05-07T14:45:59.585Z,86074.28
2023-05-07T14:48:32.135Z,86107.50
2023-05-07T14:50:59.190Z,86111.94
2023-05-07T14:53:26.380Z,86117.63
2023-05-07T14:55:53.513Z,86100.66
2023-05-07T14:58:20.650Z,86115.91
2023-05-07T15:00:47.713Z,86112.50
2023-05-07T15:03:15.558Z,86119.75
2023-05-07T15:05:44.576Z,86128.34
2023-05-07T15:08:11.672Z,86073.00
2023-05-07T15:10:42.024Z,86120.78
2023-05-07T15:13:12.668Z,86122.03
2023-05-07T15:15:43.023Z,86089.94
2023-05-07T15:18:10.147Z,86093.44
2023-05-07T15:20:37.775Z,86119.56
2023-05-07T15:23:10.997Z,86111.91
2023-05-07T15:25:39.321Z,86086.19
2023-05-07T15:28:06.670Z,86113.53
2023-05-07T15:30:34.806Z,86109.13
2023-05-07T15:33:03.513Z,86114.91
2023-05-07T15:35:30.735Z,86116.88
2023-05-07T15:38:04.566Z,86080.84
2023-05-07T15:40:32.062Z,86103.84
2023-05-07T15:42:59.244Z,86114.91
2023-05-07T15:45:26.577Z,86105.53
2023-05-07T15:47:53.728Z,86092.22
2023-05-07T15:50:20.945Z,86049.97
2023-05-07T15:52:48.153Z,86055.97
2023-05-07T15:55:15.650Z,86109.06
2023-05-07T15:57:42.676Z,86112.69
2023-05-07T16:00:12.596Z,86111.78
2023-05-07T16:02:40.150Z,86085.88
2023-05-07T16:05:10.841Z,86107.94
2023-05-07T16:07:38.384Z,86112.19
2023-05-07T16:10:05.922Z,86043.38
2023-05-07T16:12:32.987Z,86096.88
2023-05-07T16:15:00.125Z,86110.53
2023-05-07T16:17:27.262Z,86118.34
2023-05-07T16:19:54.374Z,86087.13
2023-05-07T16:22:24.865Z,86108.19
2023-05-07T16:24:52.433Z,86114.66
2023-05-07T16:27:19.688Z,86062.91
2023-05-07T16:29:46.798Z,86116.31
2023-05-07T16:32:13.800Z,86028.34
2023-05-07T16:34:40.895Z,86091.09
2023-05-07T16:37:07.966Z,86101.19
2023-05-07T16:39:35.283Z,86077.56
2023-05-07T16:42:03.134Z,86102.22
2023-05-07T16:44:30.512Z,86119.50
2023-05-07T16:46:57.657Z,86114.97
2023-05-07T16:49:24.703Z,86127.38
2023-05-07T16:51:51.767Z,86051.66
2023-05-07T16:54:18.793Z,86124.94
2023-05-07T16:56:45.894Z,86123.03
2023-05-07T16:59:12.761Z,86129.25
2023-05-07T17:01:39.805Z,86127.34
2023-05-07T17:04:06.865Z,86137.47
2023-05-07T17:06:33.893Z,86104.16
2023-05-07T17:09:00.839Z,86100.13
2023-05-07T17:11:31.171Z,86104.91
2023-05-07T17:13:58.151Z,86132.25
2023-05-07T17:16:25.264Z,86082.44
2023-05-07T17:18:52.488Z,86128.94
2023-05-07T17:21:19.464Z,86134.59
2023-05-07T17:23:46.385Z,86096.44
2023-05-07T17:26:16.711Z,86135.97
2023-05-07T17:28:43.649Z,86106.13
2023-05-07T17:31:10.543Z,86114.19
2023-05-07T17:33:37.627Z,86137.88
2023-05-07T17:36:04.932Z,86098.41
2023-05-07T17:38:32.235Z,86145.16
2023-05-07T17:40:59.295Z,86139.44
2023-05-07T17:43:26.317Z,86134.44
2023-05-07T17:45:53.307Z,86114.34
2023-05-07T17:48:21.113Z,86148.28
2023-05-07T17:50:48.109Z,86119.34
2023-05-07T17:53:15.147Z,86122.72
2023-05-07T17:55:43.986Z,86104.25
2023-05-07T17:58:14.016Z,86163.53
2023-05-07T18:00:41.221Z,86153.66
2023-05-07T18:03:08.474Z,86158.00
2023-05-07T18:05:39.830Z,86136.34
2023-05-07T18:08:07.805Z,86158.44
2023-05-07T18:10:34.784Z,86172.41
2023-05-07T18:13:01.963Z,86108.38
2023-05-07T18:15:29.088Z,86130.97
2023-05-07T18:17:56.185Z,86150.78
2023-05-07T18:20:23.271Z,86171.53
2023-05-07T18:22:50.748Z,86162.97
2023-05-07T18:25:17.935Z,86167.81
2023-05-07T18:27:45.044Z,86147.44
2023-05-07T18:30:12.595Z,86118.38
2023-05-07T18:32:39.891Z,86152.22
2023-05-07T18:35:07.238Z,86166.03
2023-05-07T18:37:34.516Z,86167.75
2023-05-07T18:40:04.101Z,86183.84
2023-05-07T18:42:32.307Z,86182.84
2023-05-07T18:45:01.113Z,86185.97
2023-05-07T18:47:28.185Z,86192.59
2023-05-07T18:49:55.244Z,86160.19
2023-05-07T18:52:22.464Z,86166.16
2023-05-07T18:54:49.635Z,86179.22
2023-05-07T18:57:16.914Z,86143.47
2023-05-07T18:59:43.835Z,86151.06
2023-05-07T19:02:11.501Z,86190.47
2023-05-07T19:04:38.825Z,86182.31
2023-05-07T19:07:06.341Z,86112.44
2023-05-07T19:09:33.414Z,86149.41
2023-05-07T19:12:00.428Z,86188.03
2023-05-07T19:14:27.407Z,86193.16
2023-05-07T19:16:54.448Z,86142.03
2023-05-07T19:19:21.759Z,86187.38
2023-05-07T19:21:48.805Z,86206.91
2023-05-07T19:24:16.211Z,86213.09
2023-05-07T19:26:43.436Z,86207.03
2023-05-07T19:29:17.229Z,86209.19
2023-05-07T19:31:45.182Z,86215.41
2023-05-07T19:34:14.300Z,86216.88
2023-05-07T19:36:41.582Z,86182.78
2023-05-07T19:39:08.710Z,86134.56
2023-05-07T19:41:35.725Z,86209.47
2023-05-07T19:44:02.756Z,86144.41
2023-05-07T19:46:29.880Z,86198.16
2023-05-07T19:48:56.931Z,86147.31
2023-05-07T19:51:24.021Z,86201.66
2023-05-07T19:53:51.585Z,86191.41
2023-05-07T19:56:18.565Z,86222.53
2023-05-07T19:58:45.689Z,86220.44
2023-05-07T20:01:12.763Z,86208.06
2023-05-07T20:03:40.014Z,86212.34
2023-05-07T20:06:07.200Z,86102.53
2023-05-07T20:08:34.286Z,86214.44
2023-05-07T20:11:26.270Z,86216.63
2023-05-07T20:13:53.161Z,86205.63
2023-05-07T20:16:20.183Z,86178.31
2023-05-07T20:18:47.317Z,86200.22
2023-05-07T20:21:14.287Z,86132.97
2023-05-07T20:23:41.256Z,86173.88
2023-05-07T20:26:08.201Z,86173.13
2023-05-07T20:28:35.462Z,86216.50
2023-05-07T20:31:02.366Z,86213.00
2023-05-07T20:33:30.212Z,86140.31
2023-05-07T20:36:00.688Z,86222.19
2023-05-07T20:38:27.690Z,86041.44
2023-05-07T20:40:54.640Z,86196.09
2023-05-07T20:43:21.856Z,86232.63
2023-05-07T20:45:48.920Z,86151.69
2023-05-07T20:48:16.012Z,86054.81
2023-05-07T20:50:43.113Z,86155.91
2023-05-07T20:53:10.036Z,86160.03
2023-05-07T20:55:37.011Z,86230.13
2023-05-07T20:58:12.668Z,86160.03
2023-05-07T21:00:39.902Z,86195.13
2023-05-07T21:03:06.894Z,86162.84
2023-05-07T21:05:33.913Z,86160.81
2023-05-07T21:08:00.887Z,86231.59
2023-05-07T21:10:27.903Z,86186.22
2023-05-07T21:12:54.860Z,86232.94
2023-05-07T21:15:21.880Z,86202.78
2023-05-07T21:17:48.796Z,86200.66
2023-05-07T21:20:16.081Z,86246.19
2023-05-07T21:22:43.222Z,86158.88
2023-05-07T21:25:11.879Z,86211.91
2023-05-07T21:27:40.194Z,86241.47
2023-05-07T21:30:08.179Z,86251.25
2023-05-07T21:32:35.305Z,86247.06
2023-05-07T21:35:02.287Z,86193.47
2023-05-07T21:37:29.234Z,86246.63
2023-05-07T21:39:56.276Z,86239.78
2023-05-07T21:42:23.565Z,86223.84
2023-05-07T21:44:51.753Z,86212.25
2023-05-07T21:47:22.744Z,86218.41
2023-05-07T21:49:50.063Z,86223.94
2023-05-07T21:52:18.480Z,86225.31
2023-05-07T21:54:45.475Z,86245.97
2023-05-07T21:57:12.443Z,86240.38
2023-05-07T21:59:39.484Z,86241.78
2023-05-07T22:02:06.802Z,86217.09
2023-05-07T22:04:33.691Z,86235.56
2023-05-07T22:07:00.848Z,86190.88
2023-05-07T22:09:27.818Z,86217.75
2023-05-07T22:11:55.235Z,86195.03
2023-05-07T22:14:22.304Z,86228.13
2023-05-07T22:16:49.268Z,86248.78
2023-05-07T22:19:16.519Z,86239.97
2023-05-07T22:21:43.810Z,86257.91
2023-05-07T22:24:11.020Z,86251.59
2023-05-07T22:26:38.106Z,86228.19
2023-05-07T22:29:05.104Z,86246.13
2023-05-07T22:31:32.365Z,86243.31
2023-05-07T22:33:59.394Z,86254.41
2023-05-07T22:36:26.973Z,86194.47
2023-05-07T22:38:53.999Z,86217.16
2023-05-07T22:41:21.698Z,86193.06
2023-05-07T22:43:48.748Z,86232.16
2023-05-07T22:46:15.833Z,86234.97
2023-05-07T22:48:42.754Z,86166.28
2023-05-07T22:51:14.459Z,86191.69
2023-05-07T22:53:41.595Z,86168.94
2023-05-07T22:56:09.893Z,86248.84
2023-05-07T22:58:36.919Z,86215.69
2023-05-07T23:01:04.031Z,86136.72
2023-05-07T23:03:31.198Z,86193.00
2023-05-07T23:05:58.296Z,86160.66
2023-05-07T23:08:25.230Z,86157.84
2023-05-07T23:10:52.114Z,86191.59
2023-05-07T23:13:19.298Z,86232.16
2023-05-07T23:15:46.303Z,86225.22
2023-05-07T23:18:13.249Z,86173.56
2023-05-07T23:20:41.446Z,86221.66
2023-05-07T23:23:08.435Z,86225.78
2023-05-07T23:25:35.682Z,86173.44
2023-05-07T23:28:02.705Z,86220.19
2023-05-07T23:30:29.579Z,86174.75
2023-05-07T23:32:56.585Z,86208.34
2023-05-07T23:35:23.542Z,86194.50
2023-05-07T23:37:50.473Z,86152.63
2023-05-07T23:40:17.759Z,86198.84
2023-05-07T23:42:44.735Z,86180.25
2023-05-07T23:45:11.704Z,86198.69
2023-05-07T23:47:38.790Z,86193.13
2023-05-07T23:50:06.346Z,86195.91
2023-05-07T23:52:33.291Z,86180.00
2023-05-07T23:55:00.239Z,86177.88
2023-05-07T23:57:27.135Z,86172.41
2023-05-07T23:59:54.171Z,86161.38
